Time;durP1;ratioP1;P1;durP2;ratioP2;P2;SDS_P1;SDS_P2;PMS_P1;PMS_P2;Temp;Humidity;BMP_temperature;BMP_pressure;BME280_temperature;BME280_humidity;BME280_pressure;Samples;Min_cycle;Max_cycle;Signal;HPM_P1;HPM_P2
2022/10/31 00:01:25;;;;;;;1.90;1.53;;;;;;;14.42;67.92;99487.66;5111831;27;20671;-65
2022/10/31 00:03:53;;;;;;;1.57;1.20;;;;;;;14.35;68.34;99483.16;5111107;27;20237;-57
2022/10/31 00:06:20;;;;;;;1.13;1.00;;;;;;;14.33;68.96;99485.03;5111744;28;20213;-57
2022/10/31 00:08:52;;;;;;;1.47;1.10;;;;;;;14.26;69.24;99485.53;5111177;28;20193;-57
2022/10/31 00:11:19;;;;;;;1.37;1.27;;;;;;;14.21;69.23;99495.38;5111566;27;20204;-65
2022/10/31 00:13:46;;;;;;;1.27;1.17;;;;;;;14.10;70.01;99498.00;5111380;28;20635;-57
2022/10/31 00:16:16;;;;;;;1.10;1.03;;;;;;;14.09;69.95;99501.50;5111408;28;20200;-57
2022/10/31 00:18:43;;;;;;;1.40;1.30;;;;;;;14.03;70.55;99502.00;5111488;27;20649;-64
2022/10/31 00:21:10;;;;;;;2.70;1.87;;;;;;;14.01;70.36;99501.31;5111349;28;20238;-57
2022/10/31 00:23:37;;;;;;;1.33;0.97;;;;;;;13.96;70.77;99501.69;5111387;28;20783;-57
2022/10/31 00:26:06;;;;;;;2.40;1.17;;;;;;;13.86;71.48;99505.91;5111302;28;20234;-57
2022/10/31 00:28:34;;;;;;;3.50;1.07;;;;;;;13.84;71.32;99509.53;5111178;28;20232;-57
2022/10/31 00:31:01;;;;;;;0.97;0.97;;;;;;;13.77;71.54;99504.88;5111020;28;20198;-64
2022/10/31 00:33:28;;;;;;;1.07;1.00;;;;;;;13.66;72.23;99504.91;5111185;28;20205;-64
2022/10/31 00:35:55;;;;;;;2.90;1.13;;;;;;;13.63;72.71;99510.28;5110806;28;20719;-57
2022/10/31 00:38:22;;;;;;;1.33;1.10;;;;;;;13.53;73.16;99509.38;5111064;28;20575;-64
2022/10/31 00:40:49;;;;;;;3.07;1.40;;;;;;;13.54;73.10;99505.88;5110825;28;20228;-60
2022/10/31 00:43:17;;;;;;;1.63;1.30;;;;;;;13.48;73.79;99516.63;5110675;28;20285;-65
2022/10/31 00:45:44;;;;;;;1.50;1.30;;;;;;;13.51;73.77;99511.25;5110584;28;20221;-64
2022/10/31 00:48:11;;;;;;;2.10;1.70;;;;;;;13.48;73.75;99503.78;5110769;28;20200;-64
2022/10/31 00:50:39;;;;;;;1.87;1.13;;;;;;;13.46;74.25;99496.19;5110884;28;20219;-57
2022/10/31 00:53:06;;;;;;;1.17;1.07;;;;;;;13.46;74.55;99503.09;5110570;28;20263;-57
2022/10/31 00:55:33;;;;;;;1.20;1.10;;;;;;;13.50;74.37;99504.50;5110529;28;20222;-64
2022/10/31 00:58:00;;;;;;;1.50;1.33;;;;;;;13.51;73.99;99511.25;5110973;28;20225;-57
2022/10/31 01:00:28;;;;;;;1.00;1.00;;;;;;;13.53;73.74;99517.09;5110607;28;20217;-57
2022/10/31 01:02:55;;;;;;;1.87;1.20;;;;;;;13.51;74.18;99518.97;5110690;27;20655;-65
2022/10/31 01:05:22;;;;;;;1.30;1.03;;;;;;;13.49;73.86;99523.38;5110433;28;20663;-64
2022/10/31 01:07:49;;;;;;;1.63;1.30;;;;;;;13.51;73.94;99521.53;5110724;28;20842;-61
2022/10/31 01:10:16;;;;;;;1.80;1.67;;;;;;;13.46;74.45;99521.06;5110627;28;20213;-57
2022/10/31 01:12:45;;;;;;;1.10;1.00;;;;;;;13.47;74.14;99515.00;5110587;27;20586;-64
2022/10/31 01:15:13;;;;;;;3.03;1.40;;;;;;;13.43;74.36;99513.59;5110392;28;20216;-57
2022/10/31 01:17:42;;;;;;;2.80;1.60;;;;;;;13.37;75.11;99514.88;5110436;28;20193;-57
2022/10/31 01:20:10;;;;;;;1.33;0.93;;;;;;;13.35;75.11;99507.31;5110162;28;20214;-57
2022/10/31 01:22:37;;;;;;;1.60;1.13;;;;;;;13.35;75.41;99506.47;5110090;28;20225;-64
2022/10/31 01:25:05;;;;;;;3.67;1.27;;;;;;;13.31;75.49;99513.59;5110252;28;20229;-57
2022/10/31 01:27:32;;;;;;;1.87;1.13;;;;;;;13.34;75.43;99509.97;5110229;28;20255;-57
2022/10/31 01:29:59;;;;;;;6.67;1.80;;;;;;;13.32;75.05;99512.69;5110477;27;20219;-62
2022/10/31 01:32:28;;;;;;;1.87;1.67;;;;;;;13.34;75.29;99513.38;5110154;28;20193;-58
2022/10/31 01:34:56;;;;;;;1.57;1.17;;;;;;;13.25;75.49;99520.94;5110197;28;20218;-65
2022/10/31 01:37:23;;;;;;;1.67;1.27;;;;;;;13.23;75.76;99528.75;5110080;28;20206;-64
2022/10/31 01:39:50;;;;;;;1.70;1.47;;;;;;;13.21;75.85;99529.81;5110088;28;20220;-64
2022/10/31 01:42:20;;;;;;;3.33;1.73;;;;;;;13.19;75.63;99529.91;5109853;28;20237;-57
2022/10/31 01:44:59;;;;;;;3.47;1.60;;;;;;;13.15;75.96;99528.53;5110031;28;20246;-57
2022/10/31 01:47:36;;;;;;;3.73;1.10;;;;;;;13.01;76.24;99526.19;5110136;28;20205;-57
2022/10/31 01:50:11;;;;;;;1.77;1.50;;;;;;;12.90;76.68;99512.41;5109947;28;20228;-57
2022/10/31 01:52:41;;;;;;;2.57;1.67;;;;;;;12.87;77.18;99522.88;5110049;28;20201;-57
2022/10/31 01:55:12;;;;;;;1.43;1.33;;;;;;;12.85;76.77;99519.59;5109954;28;20225;-57
2022/10/31 01:57:43;;;;;;;3.43;1.30;;;;;;;12.74;76.94;99527.31;5110937;28;20198;-61
2022/10/31 02:00:11;;;;;;;2.23;1.50;;;;;;;12.66;77.22;99524.50;5114066;28;20224;-60
2022/10/31 02:02:38;;;;;;;1.70;1.43;;;;;;;12.59;77.46;99523.28;5113827;28;20225;-57
2022/10/31 02:05:11;;;;;;;1.77;1.47;;;;;;;12.53;77.87;99519.44;5113854;28;20242;-65
2022/10/31 02:07:43;;;;;;;1.33;1.20;;;;;;;12.49;78.33;99527.47;5113465;28;20204;-57
2022/10/31 02:10:10;;;;;;;1.27;1.17;;;;;;;12.38;79.05;99526.50;5113950;28;20696;-57
2022/10/31 02:12:38;;;;;;;1.70;1.00;;;;;;;12.30;78.98;99518.53;5113629;28;20197;-57
2022/10/31 02:15:06;;;;;;;1.57;1.10;;;;;;;12.30;79.25;99527.97;5113799;27;20807;-65
2022/10/31 02:17:34;;;;;;;1.23;1.00;;;;;;;12.18;79.90;99524.56;5113630;28;20201;-57
2022/10/31 02:20:12;;;;;;;0.83;0.70;;;;;;;12.09;80.03;99520.09;5113315;28;20218;-65
2022/10/31 02:22:57;;;;;;;0.97;0.97;;;;;;;11.97;80.69;99517.47;5113497;28;20186;-65
2022/10/31 02:25:44;;;;;;;2.07;1.47;;;;;;;11.89;81.08;99524.88;5113067;27;20213;-57
2022/10/31 02:28:31;;;;;;;1.03;0.90;;;;;;;11.86;81.43;99514.84;5113369;28;20197;-65
2022/10/31 02:31:17;;;;;;;2.47;1.23;;;;;;;11.81;81.56;99527.16;5113126;27;20270;-65
2022/10/31 02:33:49;;;;;;;1.23;1.13;;;;;;;11.78;81.67;99527.38;5113147;28;20196;-57
2022/10/31 02:36:26;;;;;;;3.77;1.90;;;;;;;11.73;81.93;99532.00;5113002;28;20200;-57
2022/10/31 02:39:02;;;;;;;3.80;1.03;;;;;;;11.71;82.01;99546.66;5113446;28;20627;-65
2022/10/31 02:41:35;;;;;;;2.00;1.17;;;;;;;11.66;82.68;99543.56;5113266;27;20212;-65
2022/10/31 02:44:08;;;;;;;4.90;1.57;;;;;;;11.67;82.49;99555.47;5113148;28;20697;-65
2022/10/31 02:46:43;;;;;;;2.43;1.57;;;;;;;11.68;82.14;99554.53;5112953;28;20709;-65
2022/10/31 02:49:14;;;;;;;1.00;0.70;;;;;;;11.67;82.43;99560.59;5113182;28;20224;-64
2022/10/31 02:51:41;;;;;;;1.90;1.47;;;;;;;11.65;83.05;99560.69;5112912;28;20205;-57
2022/10/31 02:54:19;;;;;;;1.40;1.00;;;;;;;11.70;82.84;99573.19;5112960;28;20229;-65
2022/10/31 02:56:47;;;;;;;1.30;1.20;;;;;;;11.66;82.78;99574.31;5112822;28;20295;-65
2022/10/31 02:59:14;;;;;;;0.97;0.90;;;;;;;11.65;83.26;99572.69;5112738;28;20226;-64
2022/10/31 03:02:00;;;;;;;1.80;1.20;;;;;;;11.61;83.90;99581.53;5112609;28;20565;-57
2022/10/31 03:04:45;;;;;;;1.40;1.10;;;;;;;11.60;84.23;99584.97;5112748;28;20665;-57
2022/10/31 03:07:21;;;;;;;0.80;0.80;;;;;;;11.64;84.04;99576.19;5112702;28;20569;-57
2022/10/31 03:09:56;;;;;;;1.47;0.90;;;;;;;11.72;83.77;99579.00;5110838;28;20239;-65
2022/10/31 03:12:29;;;;;;;1.77;1.23;;;;;;;11.73;83.40;99585.78;5112583;28;20197;-57
2022/10/31 03:15:08;;;;;;;1.20;1.10;;;;;;;11.74;83.40;99587.41;5112592;28;20726;-57
2022/10/31 03:17:40;;;;;;;2.40;1.43;;;;;;;11.67;83.41;99581.09;5112260;28;20622;-57
2022/10/31 03:20:11;;;;;;;2.47;1.40;;;;;;;11.66;83.49;99574.31;5112269;28;20213;-57
2022/10/31 03:22:40;;;;;;;1.00;0.97;;;;;;;11.60;83.75;99579.88;5112256;28;20194;-65
2022/10/31 03:25:09;;;;;;;1.97;1.40;;;;;;;11.52;83.99;99577.84;5111887;28;20374;-57
2022/10/31 03:27:38;;;;;;;0.80;0.80;;;;;;;11.49;84.09;99581.44;5112100;28;20726;-65
2022/10/31 03:30:07;;;;;;;1.30;1.20;;;;;;;11.46;84.69;99579.09;5111994;28;20225;-57
2022/10/31 03:32:40;;;;;;;0.80;0.80;;;;;;;11.46;84.52;99584.19;5112202;28;20288;-57
2022/10/31 03:35:09;;;;;;;1.27;1.03;;;;;;;11.45;84.27;99582.53;5112192;28;20224;-57
2022/10/31 03:37:38;;;;;;;2.50;0.80;;;;;;;11.49;84.40;99589.09;5112241;28;20229;-65
2022/10/31 03:40:09;;;;;;;1.27;1.00;;;;;;;11.47;84.83;99588.38;5111734;28;20228;-65
2022/10/31 03:42:40;;;;;;;2.50;1.00;;;;;;;11.46;84.58;99581.63;5111997;27;20403;-58
2022/10/31 03:45:12;;;;;;;0.93;0.90;;;;;;;11.44;85.13;99596.28;5111818;28;20233;-64
2022/10/31 03:47:42;;;;;;;1.30;1.20;;;;;;;11.43;85.15;99594.66;5111900;28;20233;-57
2022/10/31 03:50:11;;;;;;;1.30;1.10;;;;;;;11.43;85.17;99593.81;5111621;28;20217;-57
2022/10/31 03:52:46;;;;;;;1.20;1.10;;;;;;;11.37;85.13;99592.47;5111535;28;20231;-57
2022/10/31 03:55:18;;;;;;;1.60;1.03;;;;;;;11.40;85.19;99589.72;5112065;28;20224;-65
2022/10/31 03:57:52;;;;;;;1.50;1.27;;;;;;;11.38;85.43;99591.56;5111909;28;20627;-64
2022/10/31 04:00:19;;;;;;;0.80;0.80;;;;;;;11.35;85.19;99596.09;5111535;28;20244;-64
2022/10/31 04:02:54;;;;;;;1.07;0.97;;;;;;;11.36;85.40;99598.53;5111381;28;20197;-65
2022/10/31 04:05:22;;;;;;;1.30;1.13;;;;;;;11.31;85.71;99598.00;5111220;28;20593;-57
2022/10/31 04:07:54;;;;;;;1.13;1.00;;;;;;;11.32;85.63;99607.34;5111846;28;20288;-64
2022/10/31 04:10:22;;;;;;;0.60;0.60;;;;;;;11.33;85.60;99611.53;5111178;28;20225;-64
2022/10/31 04:12:57;;;;;;;1.37;1.07;;;;;;;11.33;85.87;99608.97;5111300;28;20193;-57
2022/10/31 04:15:26;;;;;;;1.00;0.73;;;;;;;11.34;85.67;99602.91;5111558;28;20229;-65
2022/10/31 04:17:59;;;;;;;1.03;0.90;;;;;;;11.37;85.66;99605.28;5111202;28;20262;-64
2022/10/31 04:20:33;;;;;;;0.83;0.80;;;;;;;11.35;85.90;99606.31;5110971;28;20650;-57
2022/10/31 04:23:00;;;;;;;1.60;1.33;;;;;;;11.37;86.20;99601.91;5111415;28;20196;-57
2022/10/31 04:25:27;;;;;;;1.57;1.03;;;;;;;11.37;86.01;99600.16;5110759;28;20712;-57
2022/10/31 04:27:54;;;;;;;0.73;0.73;;;;;;;11.37;85.95;99599.34;5110972;28;20193;-57
2022/10/31 04:30:20;;;;;;;3.90;1.00;;;;;;;11.36;86.13;99598.53;5110613;28;20224;-57
2022/10/31 04:32:47;;;;;;;0.57;0.57;;;;;;;11.40;85.64;99594.81;5110922;28;20194;-57
2022/10/31 04:35:15;;;;;;;1.27;1.17;;;;;;;11.41;85.42;99606.72;5110981;28;20220;-57
2022/10/31 04:37:42;;;;;;;1.83;1.37;;;;;;;11.40;85.76;99602.50;5110824;28;20194;-58
2022/10/31 04:40:10;;;;;;;1.50;0.97;;;;;;;11.39;85.59;99611.13;5110471;28;20225;-57
2022/10/31 04:42:37;;;;;;;1.53;1.00;;;;;;;11.35;85.76;99612.25;5110606;28;20209;-65
2022/10/31 04:45:04;;;;;;;0.70;0.60;;;;;;;11.39;85.46;99629.03;5110611;28;20244;-57
2022/10/31 04:47:32;;;;;;;0.87;0.87;;;;;;;11.41;85.33;99627.22;5110596;28;20197;-57
2022/10/31 04:49:59;;;;;;;0.93;0.90;;;;;;;11.48;85.29;99618.19;5110498;28;20220;-57
2022/10/31 04:52:27;;;;;;;0.97;0.73;;;;;;;11.42;85.62;99618.59;5110827;28;20657;-65
2022/10/31 04:54:54;;;;;;;0.90;0.90;;;;;;;11.37;85.78;99615.53;5110390;28;20225;-57
2022/10/31 04:57:20;;;;;;;0.73;0.73;;;;;;;11.42;85.46;99628.03;5110376;28;20665;-65
2022/10/31 04:59:47;;;;;;;1.13;0.90;;;;;;;11.45;85.60;99623.50;5110219;28;20222;-63
2022/10/31 05:02:14;;;;;;;2.20;0.90;;;;;;;11.44;85.57;99627.00;5110494;28;20612;-57
2022/10/31 05:04:41;;;;;;;0.73;0.73;;;;;;;11.48;85.29;99632.72;5110248;28;20233;-65
2022/10/31 05:07:09;;;;;;;0.50;0.50;;;;;;;11.52;85.32;99635.00;5110111;28;20197;-65
2022/10/31 05:09:37;;;;;;;2.03;0.93;;;;;;;11.51;85.21;99635.91;5110286;28;20225;-57
2022/10/31 05:12:04;;;;;;;0.57;0.57;;;;;;;11.53;85.52;99636.63;5110270;28;20681;-58
2022/10/31 05:14:31;;;;;;;1.07;0.97;;;;;;;11.48;85.39;99628.41;5110175;28;20229;-65
2022/10/31 05:16:58;;;;;;;0.77;0.77;;;;;;;11.54;85.25;99638.25;5110082;28;20673;-57
2022/10/31 05:19:24;;;;;;;0.83;0.83;;;;;;;11.57;85.43;99643.16;5110387;28;20213;-57
2022/10/31 05:21:51;;;;;;;1.93;1.20;;;;;;;11.62;85.22;99644.63;5110004;28;20213;-57
2022/10/31 05:24:21;;;;;;;1.53;1.07;;;;;;;11.60;85.17;99646.44;5109901;28;20459;-65
2022/10/31 05:26:50;;;;;;;1.47;1.37;;;;;;;11.63;85.28;99646.25;5109994;28;20205;-65
2022/10/31 05:29:16;;;;;;;0.87;0.87;;;;;;;11.66;85.23;99651.16;5110251;28;20228;-58
2022/10/31 05:31:43;;;;;;;1.13;1.03;;;;;;;11.68;85.34;99659.56;5109458;28;20204;-64
2022/10/31 05:34:10;;;;;;;0.97;0.83;;;;;;;11.68;85.26;99674.94;5109840;28;20217;-64
2022/10/31 05:36:37;;;;;;;0.80;0.70;;;;;;;11.77;85.38;99676.88;5109827;28;20355;-57
2022/10/31 05:39:04;;;;;;;1.10;1.00;;;;;;;11.78;85.23;99676.78;5109774;28;20229;-57
2022/10/31 05:41:31;;;;;;;1.00;0.87;;;;;;;11.89;85.31;99673.50;5110044;28;20210;-65
2022/10/31 05:43:59;;;;;;;1.07;0.80;;;;;;;11.92;85.28;99685.28;5109708;28;20236;-57
2022/10/31 05:46:26;;;;;;;1.10;1.07;;;;;;;11.93;85.07;99685.19;5109866;28;20679;-57
2022/10/31 05:48:52;;;;;;;0.70;0.70;;;;;;;12.00;85.25;99686.41;5109838;28;20208;-65
2022/10/31 05:51:19;;;;;;;2.00;1.20;;;;;;;12.05;85.40;99677.59;5109846;28;20201;-64
2022/10/31 05:53:47;;;;;;;1.13;0.87;;;;;;;12.11;85.16;99677.16;5109862;28;20204;-57
2022/10/31 05:56:14;;;;;;;0.63;0.57;;;;;;;12.09;85.40;99679.00;5109763;28;20196;-64
2022/10/31 05:58:40;;;;;;;1.47;0.70;;;;;;;12.13;85.10;99676.13;5109841;28;20644;-65
2022/10/31 06:01:08;;;;;;;1.10;1.00;;;;;;;12.27;85.04;99682.03;5109562;28;20193;-57
2022/10/31 06:03:35;;;;;;;1.47;0.73;;;;;;;12.40;84.54;99693.09;5109535;28;20197;-65
2022/10/31 06:06:02;;;;;;;0.70;0.70;;;;;;;12.60;84.43;99694.25;5109646;28;20574;-64
2022/10/31 06:08:29;;;;;;;1.40;0.80;;;;;;;12.84;83.73;99692.50;5109606;28;20680;-57
2022/10/31 06:10:56;;;;;;;0.80;0.80;;;;;;;13.12;82.43;99695.63;5109727;28;20225;-57
2022/10/31 06:13:22;;;;;;;1.23;0.87;;;;;;;13.22;81.31;99696.59;5109614;28;20723;-57
2022/10/31 06:15:49;;;;;;;2.53;1.00;;;;;;;13.48;80.91;99686.16;5109464;28;20682;-57
2022/10/31 06:18:17;;;;;;;1.17;0.97;;;;;;;13.86;79.62;99690.16;5109569;28;20572;-57
2022/10/31 06:20:44;;;;;;;1.17;1.07;;;;;;;14.22;77.77;99686.50;5109540;28;20213;-64
2022/10/31 06:23:11;;;;;;;1.47;0.93;;;;;;;14.61;76.64;99687.75;5109707;28;20198;-65
2022/10/31 06:25:38;;;;;;;1.30;1.00;;;;;;;15.09;75.17;99692.44;5109238;28;20233;-65
2022/10/31 06:28:05;;;;;;;1.33;1.10;;;;;;;15.54;73.21;99697.34;5109529;28;20220;-57
2022/10/31 06:30:32;;;;;;;1.50;0.90;;;;;;;16.01;70.77;99702.88;5109469;28;20218;-65
2022/10/31 06:33:03;;;;;;;0.97;0.90;;;;;;;16.48;69.62;99704.91;5109654;28;20200;-57
2022/10/31 06:35:31;;;;;;;1.37;1.20;;;;;;;16.92;67.16;99718.28;5109500;28;20308;-57
2022/10/31 06:37:58;;;;;;;1.10;1.00;;;;;;;17.35;65.28;99704.94;5109488;28;20729;-65
2022/10/31 06:40:25;;;;;;;2.00;1.47;;;;;;;17.71;63.99;99697.34;5109608;28;20213;-57
2022/10/31 06:42:59;;;;;;;1.50;1.20;;;;;;;18.18;62.16;99705.09;5109455;28;20226;-65
2022/10/31 06:45:26;;;;;;;1.70;1.07;;;;;;;18.60;60.67;99709.72;5113003;28;20241;-65
2022/10/31 06:47:53;;;;;;;1.33;1.03;;;;;;;18.92;58.75;99713.59;5112952;28;20199;-57
2022/10/31 06:50:20;;;;;;;1.23;1.13;;;;;;;19.13;59.04;99726.25;5112777;28;20213;-57
2022/10/31 06:52:52;;;;;;;1.47;1.27;;;;;;;19.54;57.46;99732.53;5112871;28;20581;-58
2022/10/31 06:55:22;;;;;;;1.33;1.23;;;;;;;19.92;55.11;99722.69;5112762;28;20330;-57
2022/10/31 06:57:52;;;;;;;2.47;1.47;;;;;;;20.12;54.76;99718.88;5112886;28;20198;-65
2022/10/31 07:00:19;;;;;;;1.47;1.27;;;;;;;20.28;54.24;99727.72;5112725;28;20658;-58
2022/10/31 07:02:54;;;;;;;1.50;1.40;;;;;;;20.36;52.94;99725.13;5112784;28;20210;-66
2022/10/31 07:05:21;;;;;;;1.97;1.50;;;;;;;20.37;53.17;99721.56;5112886;28;20360;-64
2022/10/31 07:07:47;;;;;;;2.47;1.17;;;;;;;20.26;52.63;99729.66;5113200;28;20200;-65
2022/10/31 07:10:16;;;;;;;1.47;1.27;;;;;;;20.55;52.89;99726.69;5112730;27;20786;-66
2022/10/31 07:12:42;;;;;;;1.20;1.10;;;;;;;20.88;52.04;99732.72;5112847;28;20214;-58
2022/10/31 07:15:10;;;;;;;1.30;1.10;;;;;;;20.96;51.22;99732.72;5112537;28;20220;-64
2022/10/31 07:17:37;;;;;;;1.97;1.30;;;;;;;21.34;51.17;99719.22;5112651;28;20222;-58
2022/10/31 07:20:04;;;;;;;1.70;1.30;;;;;;;21.64;50.00;99721.16;5112893;28;20225;-58
2022/10/31 07:22:35;;;;;;;1.53;1.10;;;;;;;21.53;49.39;99723.31;5112695;28;20191;-58
2022/10/31 07:25:01;;;;;;;2.67;1.83;;;;;;;21.66;48.90;99718.38;5112432;28;20301;-66
2022/10/31 07:27:30;;;;;;;2.20;1.67;;;;;;;21.88;49.28;99717.66;5112462;28;20215;-58
2022/10/31 07:29:56;;;;;;;1.43;1.33;;;;;;;22.11;48.99;99719.53;5112584;28;20712;-66
2022/10/31 07:32:23;;;;;;;2.17;1.37;;;;;;;21.96;48.25;99724.63;5112009;28;20706;-65
2022/10/31 07:34:50;;;;;;;1.60;1.40;;;;;;;22.22;48.95;99732.19;5112493;28;20294;-66
2022/10/31 07:37:17;;;;;;;1.37;1.27;;;;;;;22.36;47.94;99726.25;5112192;28;20196;-58
2022/10/31 07:39:43;;;;;;;1.43;1.17;;;;;;;22.70;46.75;99717.25;5112473;28;20240;-61
2022/10/31 07:42:10;;;;;;;1.87;1.67;;;;;;;22.55;46.47;99716.38;5112250;28;20208;-66
2022/10/31 07:44:38;;;;;;;2.55;1.63;;;;;;;22.21;47.12;99720.16;5111784;28;20233;-66
2022/10/31 07:47:05;;;;;;;2.15;1.65;;;;;;;22.52;46.50;99714.13;5112191;28;20198;-59
2022/10/31 07:49:32;;;;;;;2.03;1.60;;;;;;;22.91;46.30;99721.00;5111765;28;20217;-65
2022/10/31 07:51:59;;;;;;;2.13;1.57;;;;;;;22.62;45.61;99726.94;5112332;27;20745;-65
2022/10/31 07:54:25;;;;;;;2.13;1.25;;;;;;;22.14;47.29;99724.41;5111914;28;20248;-58
2022/10/31 07:56:52;;;;;;;1.67;1.53;;;;;;;22.40;47.91;99731.13;5111103;28;20193;-66
2022/10/31 07:59:19;;;;;;;1.40;1.30;;;;;;;22.72;47.48;99725.72;5111845;28;20228;-66
2022/10/31 08:01:47;;;;;;;2.13;1.45;;;;;;;22.70;45.93;99730.28;5111639;28;20205;-66
2022/10/31 08:04:14;;;;;;;2.03;1.38;;;;;;;22.99;45.57;99732.22;5111828;28;20608;-58
2022/10/31 08:06:41;;;;;;;1.90;1.60;;;;;;;22.60;47.63;99733.13;5111831;28;20201;-58
2022/10/31 08:09:08;;;;;;;1.88;1.40;;;;;;;22.94;45.97;99726.69;5111477;28;20219;-66
2022/10/31 08:11:35;;;;;;;1.50;1.40;;;;;;;22.64;46.05;99724.97;5111451;28;20209;-65
2022/10/31 08:14:01;;;;;;;1.60;1.40;;;;;;;23.14;45.68;99727.03;5111611;28;20271;-58
2022/10/31 08:16:28;;;;;;;2.17;1.63;;;;;;;23.23;45.40;99739.03;5111401;28;20209;-66
2022/10/31 08:18:56;;;;;;;1.92;1.20;;;;;;;23.19;45.20;99731.75;5111352;28;20218;-58
2022/10/31 08:21:24;;;;;;;1.55;1.40;;;;;;;23.11;45.31;99734.41;5111185;28;20197;-58
2022/10/31 08:23:50;;;;;;;1.88;1.40;;;;;;;23.27;45.00;99742.09;5111222;28;20639;-59
2022/10/31 08:26:17;;;;;;;1.23;1.13;;;;;;;23.40;45.26;99744.09;5111044;28;20225;-66
2022/10/31 08:28:44;;;;;;;2.05;1.63;;;;;;;23.66;45.18;99744.50;5110990;28;20201;-66
2022/10/31 08:31:11;;;;;;;1.58;1.25;;;;;;;24.17;44.30;99741.13;5110965;28;20193;-65
2022/10/31 08:33:37;;;;;;;1.73;1.48;;;;;;;24.49;43.21;99737.31;5110942;28;20656;-66
2022/10/31 08:36:06;;;;;;;2.40;1.63;;;;;;;24.60;42.85;99746.47;5111060;28;20205;-59
2022/10/31 08:38:33;;;;;;;1.95;1.75;;;;;;;24.29;42.35;99736.25;5110966;28;20664;-65
2022/10/31 08:41:00;;;;;;;2.03;1.45;;;;;;;23.77;43.92;99738.03;5110946;28;20601;-66
2022/10/31 08:43:27;;;;;;;2.47;1.67;;;;;;;23.90;43.66;99738.22;5111251;28;20198;-66
2022/10/31 08:45:54;;;;;;;3.38;1.48;;;;;;;24.05;45.07;99738.19;5110523;28;20651;-58
2022/10/31 08:48:22;;;;;;;1.67;1.45;;;;;;;24.10;43.37;99735.84;5110765;28;20205;-59
2022/10/31 08:50:48;;;;;;;2.30;1.65;;;;;;;24.15;43.66;99733.50;5110712;28;20844;-66
2022/10/31 08:53:19;;;;;;;3.03;1.70;;;;;;;24.55;43.14;99739.22;5110631;28;20196;-65
2022/10/31 08:55:47;;;;;;;1.90;1.67;;;;;;;24.68;43.21;99753.41;5110618;28;20697;-66
2022/10/31 08:58:16;;;;;;;2.97;1.60;;;;;;;24.89;42.88;99744.75;5110797;28;20201;-59
2022/10/31 09:00:43;;;;;;;1.90;1.38;;;;;;;24.34;43.20;99741.75;5110426;28;20248;-58
2022/10/31 09:03:12;;;;;;;2.45;2.05;;;;;;;23.75;44.74;99728.78;5110418;28;20190;-59
2022/10/31 09:05:39;;;;;;;2.22;1.67;;;;;;;23.66;44.36;99741.88;5110675;28;20233;-58
2022/10/31 09:08:07;;;;;;;2.83;1.65;;;;;;;23.93;44.82;99744.88;5110390;28;20193;-66
2022/10/31 09:10:37;;;;;;;3.47;2.03;;;;;;;23.77;43.74;99747.69;5110280;28;20229;-66
2022/10/31 09:13:06;;;;;;;2.05;1.70;;;;;;;24.28;43.77;99740.66;5110360;28;20197;-59
2022/10/31 09:15:34;;;;;;;2.30;1.67;;;;;;;24.94;42.99;99745.00;5110388;28;20213;-59
2022/10/31 09:18:01;;;;;;;3.72;2.10;;;;;;;24.73;43.10;99745.81;5110315;28;20205;-59
2022/10/31 09:20:28;;;;;;;1.75;1.65;;;;;;;24.68;42.02;99737.72;5110331;28;20607;-66
2022/10/31 09:23:00;;;;;;;2.75;1.60;;;;;;;24.53;43.29;99741.19;5110231;28;20204;-66
2022/10/31 09:25:27;;;;;;;3.10;1.92;;;;;;;24.30;43.29;99740.50;5110510;28;20427;-59
2022/10/31 09:27:58;;;;;;;2.08;1.63;;;;;;;24.94;42.00;99735.34;5110250;28;20197;-59
2022/10/31 09:30:25;;;;;;;2.80;1.70;;;;;;;25.44;41.11;99738.75;5110487;28;20685;-59
2022/10/31 09:32:56;;;;;;;2.63;1.55;;;;;;;25.72;40.76;99730.06;5109830;28;20280;-67
2022/10/31 09:35:23;;;;;;;3.58;1.92;;;;;;;25.23;41.35;99744.06;5110314;28;20256;-66
2022/10/31 09:37:54;;;;;;;3.22;2.10;;;;;;;24.76;42.67;99740.22;5110201;28;20630;-59
2022/10/31 09:40:21;;;;;;;2.45;1.67;;;;;;;25.27;42.27;99742.66;5110125;28;20762;-66
2022/10/31 09:43:00;;;;;;;3.22;1.92;;;;;;;25.19;40.81;99741.03;5110075;28;20197;-65
2022/10/31 09:45:35;;;;;;;3.05;2.00;;;;;;;25.32;40.39;99742.91;5109935;28;20728;-66
2022/10/31 09:48:14;;;;;;;4.00;2.05;;;;;;;25.68;42.09;99731.44;5110454;28;20677;-58
2022/10/31 09:50:47;;;;;;;2.55;1.83;;;;;;;25.87;39.23;99730.78;5110078;28;20224;-66
2022/10/31 09:53:23;;;;;;;2.10;1.65;;;;;;;26.07;40.38;99727.44;5109997;28;20679;-66
2022/10/31 09:55:52;;;;;;;2.30;2.03;;;;;;;26.29;39.94;99721.03;5109835;28;20244;-66
2022/10/31 09:58:24;;;;;;;3.88;2.50;;;;;;;25.90;40.26;99722.53;5109997;28;20198;-66
2022/10/31 10:00:54;;;;;;;2.70;1.65;;;;;;;25.70;39.52;99725.03;5109897;28;20221;-66
2022/10/31 10:03:34;;;;;;;3.03;2.00;;;;;;;25.78;41.20;99729.31;5109836;28;20193;-66
2022/10/31 10:06:10;;;;;;;3.15;2.45;;;;;;;25.75;40.38;99724.44;5109917;28;20232;-66
2022/10/31 10:08:38;;;;;;;2.58;1.80;;;;;;;25.66;40.90;99726.41;5109815;28;20246;-66
2022/10/31 10:11:18;;;;;;;2.67;1.63;;;;;;;25.70;39.19;99725.03;5109695;28;20284;-66
2022/10/31 10:14:00;;;;;;;1.67;1.20;;;;;;;25.93;40.61;99724.75;5109728;28;20206;-59
2022/10/31 10:16:42;;;;;;;2.45;1.60;;;;;;;26.25;38.90;99714.59;5109940;28;20259;-66
2022/10/31 10:19:22;;;;;;;2.78;1.60;;;;;;;26.33;38.86;99714.44;5111725;28;20228;-62
2022/10/31 10:21:55;;;;;;;1.90;1.45;;;;;;;26.23;38.88;99715.78;5113628;28;20655;-66
2022/10/31 10:24:33;;;;;;;2.13;1.38;;;;;;;25.75;39.94;99713.97;5113709;28;20225;-66
2022/10/31 10:27:12;;;;;;;1.73;1.45;;;;;;;24.96;40.22;99712.44;5113817;28;20655;-67
2022/10/31 10:29:45;;;;;;;2.00;1.30;;;;;;;25.80;39.94;99716.78;5113693;28;20220;-59
2022/10/31 10:32:23;;;;;;;2.05;1.25;;;;;;;26.45;38.07;99708.59;5113421;28;20206;-59
2022/10/31 10:34:55;;;;;;;2.17;1.45;;;;;;;26.76;37.95;99706.25;5113254;28;20241;-66
2022/10/31 10:37:29;;;;;;;1.35;1.17;;;;;;;27.17;37.95;99707.06;5113688;28;20216;-66
2022/10/31 10:40:02;;;;;;;1.70;1.40;;;;;;;27.47;36.56;99702.19;5113842;28;20291;-66
2022/10/31 10:48:13;;;;;;;3.20;1.83;;;;;;;26.83;36.86;99706.25;5113268;28;20208;-59
2022/10/31 10:50:46;;;;;;;4.22;2.08;;;;;;;26.65;37.37;99701.59;5113492;27;20217;-59
2022/10/31 10:53:35;;;;;;;3.25;1.90;;;;;;;26.21;38.22;99697.66;5113213;28;20644;-62
2022/10/31 10:56:12;;;;;;;2.28;1.50;;;;;;;26.32;37.96;99704.91;5113088;27;20229;-59
2022/10/31 10:58:41;;;;;;;3.13;1.50;;;;;;;26.26;37.85;99695.22;5112825;28;20192;-66
2022/10/31 11:01:12;;;;;;;2.58;1.58;;;;;;;26.26;37.86;99694.44;5112901;28;20296;-59
2022/10/31 11:03:41;;;;;;;1.98;1.40;;;;;;;26.37;38.81;99696.47;5112670;28;20221;-66
2022/10/31 11:06:21;;;;;;;2.95;1.73;;;;;;;26.02;38.53;99695.78;5112519;28;20221;-59
2022/10/31 11:08:48;;;;;;;1.75;1.58;;;;;;;25.58;39.23;99694.34;5113164;28;20217;-64
2022/10/31 11:11:25;;;;;;;1.92;1.33;;;;;;;25.70;39.11;99693.59;5112379;28;20205;-66
2022/10/31 11:13:56;;;;;;;2.20;1.65;;;;;;;25.68;39.59;99692.97;5112513;28;20666;-59
2022/10/31 11:16:30;;;;;;;2.05;1.67;;;;;;;25.18;40.58;99699.31;5112507;28;20193;-66
2022/10/31 11:19:09;;;;;;;1.75;1.33;;;;;;;25.10;41.49;99688.97;5112606;27;20213;-66
2022/10/31 11:21:36;;;;;;;1.88;1.50;;;;;;;25.22;40.94;99692.69;5112468;27;20205;-65
2022/10/31 11:24:04;;;;;;;2.30;1.40;;;;;;;24.93;40.56;99678.78;5112355;28;20213;-65
2022/10/31 11:26:31;;;;;;;2.38;1.70;;;;;;;25.03;41.63;99684.50;5112378;28;20225;-66
2022/10/31 11:28:59;;;;;;;2.42;1.40;;;;;;;25.32;41.18;99674.84;5112698;28;20231;-61
2022/10/31 11:31:28;;;;;;;1.70;1.27;;;;;;;25.77;41.10;99675.28;5111335;28;20369;-59
2022/10/31 11:33:59;;;;;;;2.00;1.30;;;;;;;25.65;39.98;99679.47;5112278;28;20225;-59
2022/10/31 11:36:30;;;;;;;1.67;1.15;;;;;;;25.51;39.54;99671.56;5112308;28;20728;-58
2022/10/31 11:38:59;;;;;;;1.63;1.20;;;;;;;25.92;40.03;99662.09;5112230;27;20221;-66
2022/10/31 11:41:28;;;;;;;1.45;1.35;;;;;;;25.77;40.08;99662.19;5112235;28;20194;-66
2022/10/31 11:43:58;;;;;;;2.10;1.55;;;;;;;25.76;39.63;99652.72;5112443;28;20712;-66
2022/10/31 11:46:34;;;;;;;1.75;1.48;;;;;;;25.59;39.75;99662.72;5111985;28;20229;-59
2022/10/31 11:49:02;;;;;;;2.75;1.70;;;;;;;24.91;40.80;99659.84;5112542;28;20217;-59
2022/10/31 11:51:35;;;;;;;2.60;1.67;;;;;;;25.00;40.82;99661.31;5112205;27;20620;-59